TCMMCCHORD FLD (JOINT BASE LEWIS-MCCHORD)
METARs for airports near TCM, sorted by distance:
N 0 nm 322' KTCM 161158Z 18005KT 10SM OVC043 13/09 A3006
SW 5 nm 301' KGRF 161058Z 00000KT 10SM BKN046 OVC055 13/08 A3006
E 7 nm 537' KPLU 161155Z 18005KT 10SM SCT043 OVC055 15/06 A3007
NW 8 nm 294' KTIW 161153Z 17004KT 10SM OVC046 12/09 A3006
N 19 nm 432' KSEA 161153Z 14008KT 10SM BKN046 OVC060 13/08 A3005
SW 20 nm 207' KOLM 161154Z 19013KT 10SM SCT036 BKN043 OVC070 13/08 A3005
NE 23 nm 32' KRNT 161153Z 13004KT 10SM OVC055 13/08 A3005
NW 24 nm 444' KPWT 161156Z 00000KT 10SM OVC033 11/11 A3005
N 24 nm 21' KBFI 161153Z 14007KT 10SM OVC050 13/08 A3005
W 27 nm 272' KSHN 161153Z 00000KT 10SM OVC031 12/11 A3003
SW 34 nm 177' KCLS 161155Z 17009KT 10SM SCT045 OVC065 13/10 A3008
N 46 nm 606' KPAE 161153Z VRB05KT 10SM OVC039 12/08 A3004
W 60 nm 17' KHQM 161153Z 18014KT 10SM BKN019 OVC044 15/11 A3003
N 62 nm 141' KAWO 161156Z 13010KT 10SM SCT045 BKN055 OVC085 12/09 A3004
S 63 nm 20' KKLS 161156Z 14010KT 10SM OVC070 10/09 A3012
NW 71 nm 13' KNOW 161155Z 27005KT 10SM BKN075 BKN090 BKN110 10/10 A2991
NW 72 nm 291' KCLM 161153Z 24003KT 4SM BR BKN070 10/09 A2992
N 73 nm 47' KNUW 161156Z 13026G36KT 10SM FEW030 FEW070 BKN100 13/09 A2999
E 79 nm 1763' KELN 161153Z 00000KT 10SM CLR 02/M01 A3010
N 80 nm 145' KBVS 161155Z 10009KT 9SM FEW003 SCT033 BKN070 12/10 A3000
SW 82 nm 14' KAST 161155Z 12003KT 10SM BKN029 OVC040 14/10 A3005
S 83 nm 58' KSPB 161153Z 00000KT 10SM OVC005 09/08 A3012
N 86 nm 112' KFHR 161153Z 14017G28KT 10SM -RA BKN075 OVC090 12/10 A2995
E 86 nm 1098' KYKM 161153Z 28004KT 10SM CLR 01/01 A3011
S 91 nm 28' KVUO 161153Z 00000KT 10SM CLR 08/07 A3014
S 93 nm 30' KPDX 161153Z 14005KT 10SM CLR 09/07 A3014
E 93 nm 1248' KEAT 161155Z 27005KT 10SM CLR 07/03 A3009
S 95 nm 38' KTTD 161153Z 00000KT 10SM OVC002 07/06 A3014
N 95 nm 34' KORS 161155Z 18015G23KT 3SM -RA BR FEW024 BKN036 OVC075 13/11 A2992
NW 97 nm 193' KUIL 161153Z 17010G33KT 130V200 3SM -RA BR BKN006 OVC010 13/13 A2991
S 97 nm 207' KHIO 161153Z 00000KT 1/4SM FG VV002 08/08 A3013
NW 98 nm 64' CYYJ 161131Z 14013G20KT 10SM RA FEW015 OVC052 12/12 A2993
N 99 nm 171' KBLI 161153Z 10SM -RA OVC075 14/09 A2996
TAFs for airports near TCM, sorted by distance:
N 0 nm 322' KTCM TAF KTCM 160500Z 1605/1711 20006KT 9999 OVC045 QNH3012INS
  BECMG 1611/1612 17005KT 9999 FEW060 BKN180 QNH3005INS
  BECMG 1617/1618 19010G15KT 9999 BKN100 OVC200 QNH3000INS
  BECMG 1710/1711 19006KT 9999 VCSH SCT015 OVC035 QNH2979INS TX18/1623Z TN08/1613Z
SW 5 nm 301' KGRF TAF KGRF 160500Z 1605/1711 14004KT 9999 BKN050 QNH3011INS
  BECMG 1609/1610 20005KT 9999 SCT040 BKN080 QNH3009INS
  BECMG 1617/1618 20010G18KT 9999 SCT030 QNH3001INS
  BECMG 1708/1709 20005KT 9999 BKN030 QNH2977INS TX17/1622Z TN10/1615Z
N 19 nm 432' KSEA TAF KSEA 161120Z 1612/1718 15005KT P6SM FEW040 FEW060 OVC100
  FM161600 19008KT P6SM SCT020 BKN050 OVC100
  FM162300 19007KT P6SM BKN070 OVC120
  FM170500 20006KT P6SM VCSH BKN050 OVC070
  FM171000 21003KT P6SM BKN025 OVC050
  FM171500 24003KT P6SM OVC025
SW 20 nm 207' KOLM TAF KOLM 161120Z 1612/1712 20007KT P6SM BKN045 OVC060
  FM161500 18007KT P6SM OVC050
  FM170000 21005KT P6SM OVC100
  FM170600 22003KT P6SM OVC050
  FM171000 20005KT P6SM OVC020
NW 24 nm 444' KPWT TAF KPWT 161120Z 1612/1712 22003KT P6SM OVC035
  FM161600 19018KT P6SM SCT015 BKN040 OVC080
  FM162300 19012KT P6SM -RA BKN015 OVC030
  FM170300 20004KT P6SM OVC050
  FM171000 VRB02KT P6SM OVC015
N 24 nm 21' KBFI TAF KBFI 161120Z 1612/1712 14006KT P6SM BKN070 OVC110
  FM161600 18008KT P6SM SCT025 BKN050 OVC100
  FM162300 17008KT P6SM BKN070 OVC120
  FM170300 16005KT P6SM VCSH BKN070 OVC080
  FM171000 19003KT P6SM BKN030 OVC050
N 46 nm 606' KPAE TAF KPAE 161120Z 1612/1712 15010KT P6SM -RA SCT040 BKN070 OVC090
  FM161600 19012KT P6SM SCT020 BKN050 OVC100
  FM162300 19015G20KT 6SM -RA BKN022 OVC040
  FM170300 16008KT P6SM OVC050
W 60 nm 17' KHQM TAF KHQM 161120Z 1612/1712 17013KT P6SM OVC020
  FM161800 18015G25KT P6SM -RA BKN020 OVC040
  FM170200 18010KT P6SM OVC030
  FM170600 15007KT P6SM OVC015
NW 72 nm 291' KCLM TAF KCLM 161120Z 1612/1712 VRB04KT 4SM -RA BR FEW029 BKN100 BKN110
  FM161500 25003KT 3SM -RA BR OVC025
  FM170300 28004KT P6SM OVC020
  FM170900 30003KT P6SM OVC010
N 73 nm 47' KNUW TAF KNUW 1607/1707 15020G30KT 8000 -RA SCT014 BKN030 OVC090 640809 540209 541103 QNH2999INS
  TEMPO 1608/1612 15025G46KT 3200 -RA BR BKN008 OVC015
  FM161400 18020G35KT 9999 VCSH SCT025 OVC060 640708 540109 540903 QNH2995INS
  TEMPO 1616/1622 16015G22KT 3200 -RA BKN015 OVC030
  FM170600 20015G28KT 6000 RA BKN010 OVC035 640609 540109 QNH2993INS T08/1612Z T16/1622Z FS30014
SW 82 nm 14' KAST KAST 161130Z 1612/1712 13006KT P6SM BKN030 OVC050
  FM162100 19011G19KT P6SM BKN050
  FM170000 19009KT P6SM OVC060
  FM170600 18008KT P6SM -RA SCT015 OVC030
E 86 nm 1098' KYKM TAF KYKM 161120Z 1612/1712 29006KT P6SM BKN180
  FM161900 VRB03KT P6SM BKN200
  FM170400 28006KT P6SM BKN180
S 93 nm 30' KPDX KPDX 161130Z 1612/1712 12004KT P6SM SCT200
  FM170500 14005KT P6SM BKN150
E 93 nm 1248' KEAT TAF KEAT 161126Z 1612/1712 28004KT P6SM SCT100 SCT200
  FM162000 12004KT P6SM FEW150 SCT250
  FM170300 VRB02KT P6SM SCT120 SCT250
  FM171000 30006KT P6SM SCT120 BKN180
S 95 nm 38' KTTD KTTD 161130Z 1612/1712 11003KT P6SM SCT002
  TEMPO 1612/1616 BKN002
  FM161700 11003KT P6SM FEW250
S 97 nm 207' KHIO KHIO 161130Z 1612/1712 VRB03KT 1/4SM FG OVC002
  FM161600 VRB03KT 3SM BR BKN003
  FM161800 VRB03KT P6SM SCT180
  FM170500 16005KT P6SM BKN150
N 99 nm 171' KBLI TAF KBLI 161120Z 1612/1712 19012KT P6SM OVC070
  FM170300 16015KT P6SM OVC040
  FM170900 16010KT P6SM OVC020

Shortcut to this page: http://wxbay.com.

Data may contain errors.